Time,TemperatureF,DewpointF,PressureIn,WindDirection,WindDirectionDegrees,WindSpeedMPH,WindSpeedGustMPH,Humidity,HourlyPrecipIn,Conditions,Clouds,dailyrainin,SoftwareType,DateUTC
2013-12-24 00:01:00,25.7,17.2,30.26,NNW,337,0.0,0.0,70,0.00,,,0.00,WUHU21623XXSP,2013-12-24 08:01:00,
2013-12-24 00:06:00,25.5,17.1,30.26,NNW,337,0.0,0.0,70,0.00,,,0.00,WUHU21623XXSP,2013-12-24 08:06:00,
2013-12-24 00:11:00,25.5,17.1,30.26,NNW,337,0.0,0.0,70,0.00,,,0.00,WUHU21623XXSP,2013-12-24 08:11:00,
2013-12-24 00:16:00,25.3,17.1,30.26,NNW,337,0.0,0.0,70,0.00,,,0.00,WUHU21623XXSP,2013-12-24 08:16:00,
2013-12-24 00:21:00,25.3,16.9,30.26,NNW,337,0.0,0.0,70,0.00,,,0.00,WUHU21623XXSP,2013-12-24 08:21:00,
2013-12-24 00:26:00,25.2,16.7,30.26,NNW,337,0.0,0.0,70,0.00,,,0.00,WUHU21623XXSP,2013-12-24 08:26:00,
2013-12-24 00:31:00,25.0,16.5,30.26,North,0,0.0,0.0,70,0.00,,,0.00,WUHU21623XXSP,2013-12-24 08:31:00,
2013-12-24 00:37:00,25.0,16.5,30.26,North,0,0.0,0.0,70,0.00,,,0.00,WUHU21623XXSP,2013-12-24 08:37:00,
2013-12-24 00:42:00,25.0,16.5,30.26,North,0,0.0,0.0,70,0.00,,,0.00,WUHU21623XXSP,2013-12-24 08:42:00,
2013-12-24 00:49:00,25.0,16.8,30.26,North,0,0.0,0.0,71,0.00,,,0.00,WUHU21623XXSP,2013-12-24 08:49:00,
2013-12-24 00:54:00,25.0,16.8,30.26,SSW,202,0.0,0.0,71,0.00,,,0.00,WUHU21623XXSP,2013-12-24 08:54:00,
2013-12-24 00:59:00,24.6,16.5,30.26,SSW,202,0.0,0.0,71,0.00,,,0.00,WUHU21623XXSP,2013-12-24 08:59:00,
2013-12-24 01:04:00,24.6,16.5,30.26,WNW,292,0.0,0.0,71,0.00,,,0.00,WUHU21623XXSP,2013-12-24 09:04:00,
2013-12-24 01:09:00,24.4,16.3,30.26,WNW,292,0.0,0.0,71,0.00,,,0.00,WUHU21623XXSP,2013-12-24 09:09:00,
2013-12-24 01:16:00,24.4,16.3,30.26,NNE,22,0.0,0.0,71,0.00,,,0.00,WUHU21623XXSP,2013-12-24 09:16:00,
2013-12-24 01:22:00,24.4,16.3,30.26,NNE,22,0.0,0.0,71,0.00,,,0.00,WUHU21623XXSP,2013-12-24 09:22:00,
2013-12-24 01:27:00,24.1,16.0,30.26,ESE,112,0.0,0.0,71,0.00,,,0.00,WUHU21623XXSP,2013-12-24 09:27:00,
2013-12-24 01:32:00,24.1,16.0,30.26,ESE,112,0.0,0.0,71,0.00,,,0.00,WUHU21623XXSP,2013-12-24 09:32:00,
2013-12-24 01:40:00,23.9,15.8,30.27,SE,135,0.0,0.0,71,0.00,,,0.00,WUHU21623XXSP,2013-12-24 09:40:00,
2013-12-24 01:45:00,23.7,15.7,30.27,ENE,67,0.0,0.0,71,0.00,,,0.00,WUHU21623XXSP,2013-12-24 09:45:00,
2013-12-24 01:50:00,23.7,16.0,30.27,NE,45,0.0,0.0,72,0.00,,,0.00,WUHU21623XXSP,2013-12-24 09:50:00,
2013-12-24 01:55:00,23.7,16.0,30.27,East,90,0.0,0.0,72,0.00,,,0.00,WUHU21623XXSP,2013-12-24 09:55:00,
2013-12-24 02:00:00,23.7,16.0,30.27,ENE,67,0.0,0.0,72,0.00,,,0.00,WUHU21623XXSP,2013-12-24 10:00:00,
2013-12-24 02:05:00,23.7,16.3,30.27,East,90,0.0,0.0,73,0.00,,,0.00,WUHU21623XXSP,2013-12-24 10:05:00,
2013-12-24 02:10:00,23.7,16.3,30.27,ESE,112,0.0,0.0,73,0.00,,,0.00,WUHU21623XXSP,2013-12-24 10:10:00,
2013-12-24 02:15:00,23.7,16.3,30.27,East,90,0.0,0.0,73,0.00,,,0.00,WUHU21623XXSP,2013-12-24 10:15:00,
2013-12-24 02:21:00,23.5,16.1,30.27,East,90,0.0,0.0,73,0.00,,,0.00,WUHU21623XXSP,2013-12-24 10:21:00,
2013-12-24 02:26:00,23.7,16.3,30.27,East,90,0.0,0.0,73,0.00,,,0.00,WUHU21623XXSP,2013-12-24 10:26:00,
2013-12-24 02:31:00,23.5,16.1,30.27,ENE,67,0.0,0.0,73,0.00,,,0.00,WUHU21623XXSP,2013-12-24 10:31:00,
2013-12-24 02:36:00,23.5,16.1,30.27,ENE,67,0.0,0.0,73,0.00,,,0.00,WUHU21623XXSP,2013-12-24 10:36:00,
2013-12-24 02:41:00,23.5,16.1,30.27,ESE,112,0.0,0.0,73,0.00,,,0.00,WUHU21623XXSP,2013-12-24 10:41:00,
2013-12-24 02:46:00,23.4,16.0,30.27,East,90,0.0,0.0,73,0.00,,,0.00,WUHU21623XXSP,2013-12-24 10:46:00,
2013-12-24 02:51:00,23.2,15.8,30.27,North,0,0.0,0.0,73,0.00,,,0.00,WUHU21623XXSP,2013-12-24 10:51:00,
2013-12-24 02:56:00,23.0,15.6,30.27,WNW,292,0.0,0.0,73,0.00,,,0.00,WUHU21623XXSP,2013-12-24 10:56:00,
2013-12-24 03:01:00,23.0,15.9,30.27,WNW,292,0.0,0.0,74,0.00,,,0.00,WUHU21623XXSP,2013-12-24 11:01:00,
2013-12-24 03:06:00,22.8,15.8,30.27,WNW,292,0.0,0.0,74,0.00,,,0.00,WUHU21623XXSP,2013-12-24 11:06:00,
2013-12-24 03:11:00,22.8,15.8,30.27,WNW,292,0.0,0.0,74,0.00,,,0.00,WUHU21623XXSP,2013-12-24 11:11:00,
2013-12-24 03:16:00,22.8,15.8,30.27,WNW,292,0.0,0.0,74,0.00,,,0.00,WUHU21623XXSP,2013-12-24 11:16:00,
2013-12-24 03:21:00,22.8,15.8,30.27,WNW,292,0.0,0.0,74,0.00,,,0.00,WUHU21623XXSP,2013-12-24 11:21:00,
2013-12-24 03:27:00,22.6,15.6,30.27,WNW,292,0.0,0.0,74,0.00,,,0.00,WUHU21623XXSP,2013-12-24 11:27:00,
2013-12-24 03:32:00,22.5,15.4,30.27,West,270,0.0,0.0,74,0.00,,,0.00,WUHU21623XXSP,2013-12-24 11:32:00,
2013-12-24 03:38:00,22.3,15.2,30.27,West,270,0.0,0.0,74,0.00,,,0.00,WUHU21623XXSP,2013-12-24 11:38:00,
2013-12-24 03:44:00,22.1,15.0,30.27,West,270,0.0,0.0,74,0.00,,,0.00,WUHU21623XXSP,2013-12-24 11:44:00,
2013-12-24 03:51:00,21.9,14.9,30.27,NW,315,0.0,0.0,74,0.00,,,0.00,WUHU21623XXSP,2013-12-24 11:51:00,
2013-12-24 03:56:00,21.9,14.9,30.27,NW,315,0.0,0.0,74,0.00,,,0.00,WUHU21623XXSP,2013-12-24 11:56:00,
2013-12-24 04:01:00,21.9,14.9,30.27,NW,315,0.0,0.0,74,0.00,,,0.00,WUHU21623XXSP,2013-12-24 12:01:00,
2013-12-24 04:06:00,21.7,14.7,30.26,NW,315,0.0,0.0,74,0.00,,,0.00,WUHU21623XXSP,2013-12-24 12:06:00,
2013-12-24 04:11:00,21.6,14.7,30.27,NW,315,0.0,0.0,74,0.00,,,0.00,WUHU21623XXSP,2013-12-24 12:11:00,
2013-12-24 04:19:00,21.4,14.3,30.26,NW,315,0.0,0.0,74,0.00,,,0.00,WUHU21623XXSP,2013-12-24 12:19:00,
2013-12-24 04:25:00,21.4,14.3,30.26,NW,315,0.0,0.0,74,0.00,,,0.00,WUHU21623XXSP,2013-12-24 12:25:00,
2013-12-24 04:30:00,21.4,14.3,30.26,WNW,292,0.0,0.0,74,0.00,,,0.00,WUHU21623XXSP,2013-12-24 12:30:00,
2013-12-24 04:36:00,21.0,14.0,30.26,WNW,292,0.0,0.0,74,0.00,,,0.00,WUHU21623XXSP,2013-12-24 12:36:00,
2013-12-24 04:42:00,21.0,14.0,30.25,WNW,292,0.0,0.0,74,0.00,,,0.00,WUHU21623XXSP,2013-12-24 12:42:00,
2013-12-24 04:49:00,21.0,14.0,30.26,WNW,292,0.0,0.0,74,0.00,,,0.00,WUHU21623XXSP,2013-12-24 12:49:00,
2013-12-24 04:54:00,21.0,14.0,30.26,ENE,67,0.0,0.0,74,0.00,,,0.00,WUHU21623XXSP,2013-12-24 12:54:00,
2013-12-24 04:59:00,20.8,13.8,30.26,ESE,112,0.0,0.0,74,0.00,,,0.00,WUHU21623XXSP,2013-12-24 12:59:00,
2013-12-24 05:04:00,20.8,13.8,30.26,ESE,112,0.0,0.0,74,0.00,,,0.00,WUHU21623XXSP,2013-12-24 13:04:00,
2013-12-24 05:09:00,20.7,13.8,30.26,East,90,0.0,0.0,74,0.00,,,0.00,WUHU21623XXSP,2013-12-24 13:09:00,
2013-12-24 05:14:00,20.5,13.7,30.26,East,90,0.0,0.0,75,0.00,,,0.00,WUHU21623XXSP,2013-12-24 13:14:00,
2013-12-24 05:29:00,20.3,13.2,30.26,NNW,337,0.0,0.0,74,0.00,,,0.00,WUHU21623XXSP,2013-12-24 13:29:00,
2013-12-24 05:34:00,20.3,13.6,30.26,NNW,337,0.0,0.0,75,0.00,,,0.00,WUHU21623XXSP,2013-12-24 13:34:00,
2013-12-24 05:39:00,20.3,13.6,30.27,NNW,337,0.0,0.0,75,0.00,,,0.00,WUHU21623XXSP,2013-12-24 13:39:00,
2013-12-24 05:44:00,20.1,13.4,30.27,West,270,0.0,0.0,75,0.00,,,0.00,WUHU21623XXSP,2013-12-24 13:44:00,
2013-12-24 05:49:00,20.1,13.4,30.27,NW,315,0.9,0.9,75,0.00,,,0.00,WUHU21623XXSP,2013-12-24 13:49:00,
2013-12-24 05:55:00,20.1,13.4,30.26,WNW,292,0.0,0.9,75,0.00,,,0.00,WUHU21623XXSP,2013-12-24 13:55:00,
2013-12-24 06:00:00,20.1,13.4,30.27,WNW,292,0.0,0.0,75,0.00,,,0.00,WUHU21623XXSP,2013-12-24 14:00:00,
2013-12-24 06:05:00,20.1,13.7,30.27,WNW,292,0.0,0.0,76,0.00,,,0.00,WUHU21623XXSP,2013-12-24 14:05:00,
2013-12-24 06:10:00,20.1,13.7,30.27,WNW,292,0.0,0.0,76,0.00,,,0.00,WUHU21623XXSP,2013-12-24 14:10:00,
2013-12-24 06:15:00,20.1,13.7,30.27,ESE,112,0.0,0.0,76,0.00,,,0.00,WUHU21623XXSP,2013-12-24 14:15:00,
2013-12-24 06:20:00,20.1,13.7,30.27,ESE,112,0.0,0.0,76,0.00,,,0.00,WUHU21623XXSP,2013-12-24 14:20:00,
2013-12-24 06:25:00,20.1,13.7,30.27,ESE,112,0.0,0.0,76,0.00,,,0.00,WUHU21623XXSP,2013-12-24 14:25:00,
2013-12-24 06:30:00,19.9,13.5,30.27,East,90,0.0,0.0,76,0.00,,,0.00,WUHU21623XXSP,2013-12-24 14:30:00,
2013-12-24 06:36:00,19.9,13.5,30.27,East,90,0.0,0.0,76,0.00,,,0.00,WUHU21623XXSP,2013-12-24 14:36:00,
2013-12-24 06:42:00,19.9,13.5,30.28,WSW,247,0.0,0.0,76,0.00,,,0.00,WUHU21623XXSP,2013-12-24 14:42:00,
2013-12-24 06:47:00,19.9,13.5,30.27,WSW,247,0.0,0.0,76,0.00,,,0.00,WUHU21623XXSP,2013-12-24 14:47:00,
2013-12-24 06:53:00,19.9,13.5,30.27,SSW,202,0.0,0.0,76,0.00,,,0.00,WUHU21623XXSP,2013-12-24 14:53:00,
2013-12-24 06:58:00,19.8,13.3,30.27,SSW,202,0.0,0.0,76,0.00,,,0.00,WUHU21623XXSP,2013-12-24 14:58:00,
2013-12-24 07:03:00,19.8,13.3,30.27,SSW,202,0.0,0.0,76,0.00,,,0.00,WUHU21623XXSP,2013-12-24 15:03:00,
2013-12-24 07:08:00,19.6,13.1,30.28,NNE,22,0.0,0.0,76,0.00,,,0.00,WUHU21623XXSP,2013-12-24 15:08:00,
2013-12-24 07:13:00,19.4,13.0,30.28,SSE,157,0.0,0.0,76,0.00,,,0.00,WUHU21623XXSP,2013-12-24 15:13:00,
2013-12-24 07:18:00,19.2,12.8,30.29,NNW,337,0.0,0.0,76,0.00,,,0.00,WUHU21623XXSP,2013-12-24 15:18:00,
2013-12-24 07:23:00,19.2,12.8,30.28,NNW,337,0.0,0.0,76,0.00,,,0.00,WUHU21623XXSP,2013-12-24 15:23:00,
2013-12-24 07:28:00,19.2,12.8,30.29,NNW,337,0.0,0.0,76,0.00,,,0.00,WUHU21623XXSP,2013-12-24 15:28:00,
2013-12-24 07:33:00,18.9,12.6,30.29,NNW,337,0.0,0.0,76,0.00,,,0.00,WUHU21623XXSP,2013-12-24 15:33:00,
2013-12-24 07:40:00,18.9,12.4,30.29,SW,225,0.0,0.0,76,0.00,,,0.00,WUHU21623XXSP,2013-12-24 15:40:00,
2013-12-24 07:45:00,18.9,12.4,30.29,SW,225,0.0,0.0,76,0.00,,,0.00,WUHU21623XXSP,2013-12-24 15:45:00,
2013-12-24 07:51:00,18.7,12.6,30.29,SW,225,0.0,0.0,77,0.00,,,0.00,WUHU21623XXSP,2013-12-24 15:51:00,
2013-12-24 07:56:00,18.7,12.6,30.29,SW,225,0.0,0.0,77,0.00,,,0.00,WUHU21623XXSP,2013-12-24 15:56:00,
2013-12-24 08:01:00,18.9,12.7,30.30,SW,225,0.0,0.0,77,0.00,,,0.00,WUHU21623XXSP,2013-12-24 16:01:00,
2013-12-24 08:06:00,18.9,12.7,30.30,WSW,247,0.0,0.0,77,0.00,,,0.00,WUHU21623XXSP,2013-12-24 16:06:00,
2013-12-24 08:11:00,19.0,12.9,30.30,WSW,247,0.0,0.0,77,0.00,,,0.00,WUHU21623XXSP,2013-12-24 16:11:00,
2013-12-24 08:16:00,19.2,13.1,30.30,WSW,247,0.0,0.0,77,0.00,,,0.00,WUHU21623XXSP,2013-12-24 16:16:00,
2013-12-24 08:21:00,19.2,13.4,30.30,NE,45,0.0,0.0,78,0.00,,,0.00,WUHU21623XXSP,2013-12-24 16:21:00,
2013-12-24 08:26:00,19.6,13.7,30.30,ENE,67,0.0,0.0,78,0.00,,,0.00,WUHU21623XXSP,2013-12-24 16:26:00,
2013-12-24 08:31:00,20.1,14.1,30.30,South,180,0.0,0.0,79,0.00,,,0.00,WUHU21623XXSP,2013-12-24 16:31:00,
2013-12-24 08:36:00,20.3,14.8,30.30,South,180,0.0,0.0,79,0.00,,,0.00,WUHU21623XXSP,2013-12-24 16:36:00,
2013-12-24 08:42:00,20.7,15.1,30.30,SSW,202,0.0,0.0,79,0.00,,,0.00,WUHU21623XXSP,2013-12-24 16:42:00,
2013-12-24 08:47:00,21.4,16.2,30.30,SE,135,0.0,0.0,80,0.00,,,0.00,WUHU21623XXSP,2013-12-24 16:47:00,
2013-12-24 08:53:00,22.8,18.4,30.30,West,270,0.0,0.0,83,0.00,,,0.00,WUHU21623XXSP,2013-12-24 16:53:00,
2013-12-24 08:59:00,24.1,19.9,30.30,West,270,0.0,0.0,84,0.00,,,0.00,WUHU21623XXSP,2013-12-24 16:59:00,
2013-12-24 09:04:00,25.2,21.0,30.31,West,270,0.0,0.0,84,0.00,,,0.00,WUHU21623XXSP,2013-12-24 17:04:00,
2013-12-24 09:10:00,26.2,22.0,30.30,WSW,247,0.0,0.0,84,0.00,,,0.00,WUHU21623XXSP,2013-12-24 17:10:00,
2013-12-24 09:15:00,27.1,22.4,30.30,SE,135,0.0,0.0,84,0.00,,,0.00,WUHU21623XXSP,2013-12-24 17:15:00,
2013-12-24 09:20:00,27.3,23.1,30.31,ESE,112,0.0,0.0,84,0.00,,,0.00,WUHU21623XXSP,2013-12-24 17:20:00,
2013-12-24 09:25:00,28.6,24.3,30.31,NE,45,0.0,0.0,84,0.00,,,0.00,WUHU21623XXSP,2013-12-24 17:25:00,
2013-12-24 09:30:00,29.1,24.9,30.30,South,180,0.0,0.0,84,0.00,,,0.00,WUHU21623XXSP,2013-12-24 17:30:00,
2013-12-24 09:35:00,30.0,25.8,30.31,NNE,22,0.0,0.0,84,0.00,,,0.00,WUHU21623XXSP,2013-12-24 17:35:00,
2013-12-24 09:40:00,30.7,26.5,30.31,South,180,0.0,0.0,84,0.00,,,0.00,WUHU21623XXSP,2013-12-24 17:40:00,
2013-12-24 09:45:00,31.3,26.7,30.30,SSE,157,0.0,0.0,83,0.00,,,0.00,WUHU21623XXSP,2013-12-24 17:45:00,
2013-12-24 09:50:00,32.4,27.2,30.30,SSE,157,0.0,0.0,81,0.00,,,0.00,WUHU21623XXSP,2013-12-24 17:50:00,
2013-12-24 09:55:00,32.7,27.1,30.30,SW,225,0.0,0.0,80,0.00,,,0.00,WUHU21623XXSP,2013-12-24 17:55:00,
2013-12-24 10:00:00,33.3,27.7,30.30,WSW,247,0.0,0.0,80,0.00,,,0.00,WUHU21623XXSP,2013-12-24 18:00:00,
2013-12-24 10:08:00,34.0,28.4,30.30,East,90,0.0,0.0,80,0.00,,,0.00,WUHU21623XXSP,2013-12-24 18:08:00,
2013-12-24 10:13:00,34.5,28.6,30.29,East,90,0.0,0.0,79,0.00,,,0.00,WUHU21623XXSP,2013-12-24 18:13:00,
2013-12-24 10:18:00,35.2,29.3,30.30,West,270,0.0,0.0,79,0.00,,,0.00,WUHU21623XXSP,2013-12-24 18:18:00,
2013-12-24 10:23:00,36.0,29.2,30.30,WNW,292,0.0,0.0,78,0.00,,,0.00,WUHU21623XXSP,2013-12-24 18:23:00,
2013-12-24 10:28:00,36.1,29.9,30.30,West,270,0.0,0.0,78,0.00,,,0.00,WUHU21623XXSP,2013-12-24 18:28:00,
2013-12-24 10:33:00,37.2,30.0,30.29,WSW,247,0.0,0.0,75,0.00,,,0.00,WUHU21623XXSP,2013-12-24 18:33:00,
2013-12-24 10:38:00,37.6,30.4,30.30,WNW,292,0.0,0.0,75,0.00,,,0.00,WUHU21623XXSP,2013-12-24 18:38:00,
2013-12-24 10:43:00,37.9,30.2,30.30,SE,135,0.0,0.0,74,0.00,,,0.00,WUHU21623XXSP,2013-12-24 18:43:00,
2013-12-24 10:48:00,38.8,30.9,30.30,WNW,292,0.0,0.0,73,0.00,,,0.00,WUHU21623XXSP,2013-12-24 18:48:00,
2013-12-24 10:53:00,39.2,31.2,30.29,West,270,0.0,0.0,73,0.00,,,0.00,WUHU21623XXSP,2013-12-24 18:53:00,
2013-12-24 10:59:00,40.1,31.8,30.29,SE,135,0.0,0.0,72,0.00,,,0.00,WUHU21623XXSP,2013-12-24 18:59:00,
2013-12-24 11:04:00,40.8,32.1,30.28,SSW,202,0.0,0.0,71,0.00,,,0.00,WUHU21623XXSP,2013-12-24 19:04:00,
2013-12-24 11:09:00,41.7,33.0,30.28,WNW,292,0.0,0.0,71,0.00,,,0.00,WUHU21623XXSP,2013-12-24 19:09:00,
2013-12-24 11:14:00,42.6,33.6,30.28,WNW,292,0.0,0.0,70,0.00,,,0.00,WUHU21623XXSP,2013-12-24 19:14:00,
2013-12-24 11:20:00,44.1,33.8,30.28,South,180,0.0,0.0,67,0.00,,,0.00,WUHU21623XXSP,2013-12-24 19:20:00,
2013-12-24 11:26:00,45.0,34.3,30.28,WSW,247,0.0,0.0,66,0.00,,,0.00,WUHU21623XXSP,2013-12-24 19:26:00,
2013-12-24 11:31:00,46.0,34.5,30.27,NNE,22,0.0,0.0,63,0.00,,,0.00,WUHU21623XXSP,2013-12-24 19:31:00,
2013-12-24 11:36:00,46.9,35.0,30.27,West,270,0.0,0.0,63,0.00,,,0.00,WUHU21623XXSP,2013-12-24 19:36:00,
2013-12-24 11:41:00,47.7,35.3,30.27,NNE,22,0.0,0.0,62,0.00,,,0.00,WUHU21623XXSP,2013-12-24 19:41:00,
2013-12-24 11:46:00,48.4,35.2,30.27,NNW,337,0.0,0.0,60,0.00,,,0.00,WUHU21623XXSP,2013-12-24 19:46:00,
2013-12-24 11:51:00,49.1,35.4,30.27,West,270,0.0,0.0,59,0.00,,,0.00,WUHU21623XXSP,2013-12-24 19:51:00,
2013-12-24 11:56:00,49.5,34.8,30.27,SSW,202,0.0,0.0,57,0.00,,,0.00,WUHU21623XXSP,2013-12-24 19:56:00,
2013-12-24 12:01:00,49.8,34.7,30.27,WSW,247,0.0,0.0,56,0.00,,,0.00,WUHU21623XXSP,2013-12-24 20:01:00,
2013-12-24 12:06:00,49.8,34.7,30.27,NNW,337,0.7,0.7,56,0.00,,,0.00,WUHU21623XXSP,2013-12-24 20:06:00,
2013-12-24 12:11:00,50.2,34.6,30.26,NW,315,0.0,0.7,55,0.00,,,0.00,WUHU21623XXSP,2013-12-24 20:11:00,
2013-12-24 12:16:00,50.9,35.1,30.26,WNW,292,0.0,0.0,55,0.00,,,0.00,WUHU21623XXSP,2013-12-24 20:16:00,
2013-12-24 12:21:00,51.6,35.4,30.26,NW,315,0.0,2.9,54,0.00,,,0.00,WUHU21623XXSP,2013-12-24 20:21:00,
2013-12-24 12:36:00,52.5,35.3,30.25,WNW,292,0.0,0.0,52,0.00,,,0.00,WUHU21623XXSP,2013-12-24 20:36:00,
2013-12-24 12:41:00,53.1,34.9,30.25,SW,225,0.0,0.0,50,0.00,,,0.00,WUHU21623XXSP,2013-12-24 20:41:00,
2013-12-24 12:46:00,53.4,35.3,30.25,WNW,292,0.0,0.0,50,0.00,,,0.00,WUHU21623XXSP,2013-12-24 20:46:00,
2013-12-24 12:51:00,53.4,34.7,30.25,WNW,292,4.0,4.0,49,0.00,,,0.00,WUHU21623XXSP,2013-12-24 20:51:00,
2013-12-24 12:56:00,53.4,34.1,30.24,West,270,2.5,4.0,48,0.00,,,0.00,WUHU21623XXSP,2013-12-24 20:56:00,
2013-12-24 13:10:00,53.4,34.7,30.24,WNW,292,3.4,3.4,49,0.00,,,0.00,WUHU21623XXSP,2013-12-24 21:10:00,
2013-12-24 13:15:00,53.4,34.7,30.24,WNW,292,5.8,5.8,49,0.00,,,0.00,WUHU21623XXSP,2013-12-24 21:15:00,
2013-12-24 13:20:00,54.0,34.5,30.24,WNW,292,2.2,5.8,48,0.00,,,0.00,WUHU21623XXSP,2013-12-24 21:20:00,
2013-12-24 13:27:00,54.1,34.2,30.24,WNW,292,6.5,6.5,47,0.00,,,0.00,WUHU21623XXSP,2013-12-24 21:27:00,
2013-12-24 13:32:00,54.3,33.8,30.24,WNW,292,4.0,6.5,46,0.00,,,0.00,WUHU21623XXSP,2013-12-24 21:32:00,
2013-12-24 13:37:00,54.5,34.0,30.24,West,270,4.0,4.0,46,0.00,,,0.00,WUHU21623XXSP,2013-12-24 21:37:00,
2013-12-24 13:42:00,54.7,34.2,30.24,NW,315,4.7,4.7,46,0.00,,,0.00,WUHU21623XXSP,2013-12-24 21:42:00,
2013-12-24 13:48:00,55.0,33.9,30.24,NW,315,6.0,6.0,45,0.00,,,0.00,WUHU21623XXSP,2013-12-24 21:48:00,
2013-12-24 13:55:00,54.9,33.8,30.24,WNW,292,7.2,7.2,45,0.00,,,0.00,WUHU21623XXSP,2013-12-24 21:55:00,
2013-12-24 14:00:00,54.5,32.9,30.23,WNW,292,4.7,7.2,44,0.00,,,0.00,WUHU21623XXSP,2013-12-24 22:00:00,
2013-12-24 14:05:00,53.8,32.8,30.24,NW,315,5.1,6.0,45,0.00,,,0.00,WUHU21623XXSP,2013-12-24 22:05:00,
2013-12-24 14:10:00,53.2,33.0,30.23,WNW,292,4.5,6.0,46,0.00,,,0.00,WUHU21623XXSP,2013-12-24 22:10:00,
2013-12-24 14:15:00,52.7,32.5,30.23,West,270,7.2,7.2,47,0.00,,,0.00,WUHU21623XXSP,2013-12-24 22:15:00,
2013-12-24 14:20:00,52.3,33.2,30.23,NW,315,7.6,7.6,48,0.00,,,0.00,WUHU21623XXSP,2013-12-24 22:20:00,
2013-12-24 14:25:00,52.0,32.8,30.23,WNW,292,7.4,7.6,48,0.00,,,0.00,WUHU21623XXSP,2013-12-24 22:25:00,
2013-12-24 14:36:00,51.6,33.6,30.24,WNW,292,7.6,7.6,50,0.00,,,0.00,WUHU21623XXSP,2013-12-24 22:36:00,
2013-12-24 14:44:00,51.1,33.2,30.24,West,270,5.1,5.1,50,0.00,,,0.00,WUHU21623XXSP,2013-12-24 22:44:00,
2013-12-24 14:49:00,51.3,33.8,30.24,North,0,5.4,5.4,51,0.00,,,0.00,WUHU21623XXSP,2013-12-24 22:49:00,
2013-12-24 14:55:00,51.1,33.6,30.24,WNW,292,7.4,7.4,51,0.00,,,0.00,WUHU21623XXSP,2013-12-24 22:55:00,
2013-12-24 15:01:00,51.1,34.1,30.24,North,0,2.9,7.4,52,0.00,,,0.00,WUHU21623XXSP,2013-12-24 23:01:00,
2013-12-24 15:12:00,50.5,33.6,30.24,NW,315,4.3,4.3,52,0.00,,,0.00,WUHU21623XXSP,2013-12-24 23:12:00,
2013-12-24 15:17:00,50.4,33.4,30.24,NNE,22,2.9,4.3,52,0.00,,,0.00,WUHU21623XXSP,2013-12-24 23:17:00,
2013-12-24 15:22:00,50.4,33.4,30.24,NNE,22,2.9,2.9,52,0.00,,,0.00,WUHU21623XXSP,2013-12-24 23:22:00,
2013-12-24 15:27:00,50.0,33.5,30.24,NNW,337,6.7,6.7,53,0.00,,,0.00,WUHU21623XXSP,2013-12-24 23:27:00,
2013-12-24 15:32:00,49.8,32.9,30.24,NW,315,7.2,7.2,52,0.00,,,0.00,WUHU21623XXSP,2013-12-24 23:32:00,
2013-12-24 15:37:00,49.5,33.0,30.24,NNW,337,10.5,10.5,53,0.00,,,0.00,WUHU21623XXSP,2013-12-24 23:37:00,
2013-12-24 15:42:00,48.9,32.6,30.25,WNW,292,3.4,10.5,53,0.00,,,0.00,WUHU21623XXSP,2013-12-24 23:42:00,
2013-12-24 15:47:00,48.9,32.9,30.25,NNW,337,4.9,6.0,54,0.00,,,0.00,WUHU21623XXSP,2013-12-24 23:47:00,
2013-12-24 15:52:00,48.7,32.8,30.25,WNW,292,5.6,5.6,54,0.00,,,0.00,WUHU21623XXSP,2013-12-24 23:52:00,
2013-12-24 15:57:00,48.6,32.6,30.25,WNW,292,5.4,5.6,54,0.00,,,0.00,WUHU21623XXSP,2013-12-24 23:57:00,
2013-12-24 16:02:00,48.0,32.5,30.25,WNW,292,4.0,5.4,55,0.00,,,0.00,WUHU21623XXSP,2013-12-25 00:02:00,
2013-12-24 16:07:00,47.7,32.2,30.25,WNW,292,5.8,5.8,55,0.00,,,0.00,WUHU21623XXSP,2013-12-25 00:07:00,
2013-12-24 16:18:00,46.8,31.8,30.26,WNW,292,4.9,4.9,56,0.00,,,0.00,WUHU21623XXSP,2013-12-25 00:18:00,
2013-12-24 16:23:00,46.2,31.6,30.26,WNW,292,4.3,4.9,56,0.00,,,0.00,WUHU21623XXSP,2013-12-25 00:23:00,
2013-12-24 16:33:00,45.7,31.3,30.26,WNW,292,2.0,4.9,57,0.00,,,0.00,WUHU21623XXSP,2013-12-25 00:33:00,
2013-12-24 16:38:00,45.1,31.2,30.26,NW,315,4.5,4.5,58,0.00,,,0.00,WUHU21623XXSP,2013-12-25 00:38:00,
2013-12-24 16:44:00,44.2,31.0,30.26,WNW,292,8.3,8.3,59,0.00,,,0.00,WUHU21623XXSP,2013-12-25 00:44:00,
2013-12-24 16:49:00,43.9,30.9,30.26,NW,315,5.8,8.3,60,0.00,,,0.00,WUHU21623XXSP,2013-12-25 00:49:00,
2013-12-24 16:55:00,43.3,30.8,30.26,NNW,337,6.0,6.0,61,0.00,,,0.00,WUHU21623XXSP,2013-12-25 00:55:00,
2013-12-24 17:00:00,43.2,31.0,30.27,West,270,4.3,6.0,62,0.00,,,0.00,WUHU21623XXSP,2013-12-25 01:00:00,
2013-12-24 17:10:00,42.4,30.3,30.27,NW,315,4.5,4.5,62,0.00,,,0.00,WUHU21623XXSP,2013-12-25 01:10:00,
2013-12-24 17:15:00,41.9,30.3,30.27,NW,315,5.4,5.4,63,0.00,,,0.00,WUHU21623XXSP,2013-12-25 01:15:00,
2013-12-24 17:20:00,41.7,30.4,30.27,NNW,337,6.5,6.5,64,0.00,,,0.00,WUHU21623XXSP,2013-12-25 01:20:00,
2013-12-24 17:25:00,41.5,30.2,30.27,WNW,292,3.6,6.5,65,0.00,,,0.00,WUHU21623XXSP,2013-12-25 01:25:00,
2013-12-24 17:31:00,41.2,30.3,30.27,NNW,337,5.4,5.4,65,0.00,,,0.00,WUHU21623XXSP,2013-12-25 01:31:00,
2013-12-24 17:37:00,40.8,29.9,30.28,NNW,337,5.4,5.4,65,0.00,,,0.00,WUHU21623XXSP,2013-12-25 01:37:00,
2013-12-24 17:42:00,40.8,30.3,30.27,WNW,292,3.4,5.4,66,0.00,,,0.00,WUHU21623XXSP,2013-12-25 01:42:00,
2013-12-24 17:47:00,40.6,30.3,30.27,WNW,292,6.0,6.0,66,0.00,,,0.00,WUHU21623XXSP,2013-12-25 01:47:00,
2013-12-24 17:52:00,40.5,29.9,30.28,WNW,292,4.0,6.0,66,0.00,,,0.00,WUHU21623XXSP,2013-12-25 01:52:00,
2013-12-24 18:01:00,40.1,29.6,30.28,West,270,3.6,4.0,66,0.00,,,0.00,WUHU21623XXSP,2013-12-25 02:01:00,
2013-12-24 18:06:00,39.9,29.8,30.28,WNW,292,3.6,3.6,67,0.00,,,0.00,WUHU21623XXSP,2013-12-25 02:06:00,
2013-12-24 18:11:00,39.6,29.6,30.28,NNW,337,6.5,6.5,67,0.00,,,0.00,WUHU21623XXSP,2013-12-25 02:11:00,
2013-12-24 18:18:00,39.4,29.6,30.28,North,0,2.2,4.0,68,0.00,,,0.00,WUHU21623XXSP,2013-12-25 02:18:00,
2013-12-24 18:27:00,39.0,29.7,30.29,NNW,337,0.0,2.2,69,0.00,,,0.00,WUHU21623XXSP,2013-12-25 02:27:00,
2013-12-24 18:32:00,39.0,29.7,30.29,NNW,337,0.0,0.0,68,0.00,,,0.00,WUHU21623XXSP,2013-12-25 02:32:00,
2013-12-24 18:37:00,39.0,29.3,30.29,NW,315,0.0,0.0,68,0.00,,,0.00,WUHU21623XXSP,2013-12-25 02:37:00,
2013-12-24 18:42:00,38.7,28.6,30.29,NW,315,0.0,0.0,67,0.00,,,0.00,WUHU21623XXSP,2013-12-25 02:42:00,
2013-12-24 18:47:00,38.5,28.4,30.29,WNW,292,0.0,0.0,67,0.00,,,0.00,WUHU21623XXSP,2013-12-25 02:47:00,
2013-12-24 18:52:00,37.9,27.6,30.29,WSW,247,0.0,0.0,66,0.00,,,0.00,WUHU21623XXSP,2013-12-25 02:52:00,
2013-12-24 18:58:00,37.9,27.6,30.29,WSW,247,0.0,0.0,66,0.00,,,0.00,WUHU21623XXSP,2013-12-25 02:58:00,
2013-12-24 19:05:00,37.0,26.7,30.29,West,270,0.0,0.0,66,0.00,,,0.00,WUHU21623XXSP,2013-12-25 03:05:00,
2013-12-24 19:16:00,36.1,25.8,30.30,ENE,67,0.0,0.0,66,0.00,,,0.00,WUHU21623XXSP,2013-12-25 03:16:00,
2013-12-24 19:24:00,35.4,25.2,30.30,East,90,0.0,0.0,66,0.00,,,0.00,WUHU21623XXSP,2013-12-25 03:24:00,
2013-12-24 19:27:00,35.2,25.0,30.30,ESE,112,0.0,0.0,66,0.00,,,0.00,WUHU21623XXSP,2013-12-25 03:27:00,
2013-12-24 19:33:00,34.9,25.0,30.30,ESE,112,0.0,0.0,67,0.00,,,0.00,WUHU21623XXSP,2013-12-25 03:33:00,
2013-12-24 19:45:00,34.0,24.1,30.30,SE,135,0.0,0.0,67,0.00,,,0.00,WUHU21623XXSP,2013-12-25 03:45:00,
2013-12-24 19:50:00,33.6,23.7,30.30,SE,135,0.0,0.0,67,0.00,,,0.00,WUHU21623XXSP,2013-12-25 03:50:00,
2013-12-24 19:55:00,33.1,23.3,30.30,NE,45,0.0,0.0,67,0.00,,,0.00,WUHU21623XXSP,2013-12-25 03:55:00,
2013-12-24 20:00:00,32.9,23.4,30.30,ENE,67,0.0,0.0,68,0.00,,,0.00,WUHU21623XXSP,2013-12-25 04:00:00,
2013-12-24 20:05:00,32.5,23.3,30.31,East,90,0.0,0.0,68,0.00,,,0.00,WUHU21623XXSP,2013-12-25 04:05:00,
2013-12-24 20:10:00,32.5,23.1,30.31,NE,45,0.0,0.0,68,0.00,,,0.00,WUHU21623XXSP,2013-12-25 04:10:00,
2013-12-24 20:15:00,32.2,22.8,30.31,East,90,0.0,0.0,68,0.00,,,0.00,WUHU21623XXSP,2013-12-25 04:15:00,
2013-12-24 20:21:00,31.8,22.5,30.31,ENE,67,0.0,0.0,68,0.00,,,0.00,WUHU21623XXSP,2013-12-25 04:21:00,
2013-12-24 20:26:00,31.8,22.5,30.31,ESE,112,0.0,0.0,68,0.00,,,0.00,WUHU21623XXSP,2013-12-25 04:26:00,
2013-12-24 20:31:00,31.6,22.3,30.31,NE,45,0.0,0.0,68,0.00,,,0.00,WUHU21623XXSP,2013-12-25 04:31:00,
2013-12-24 20:36:00,31.3,21.9,30.31,NE,45,0.0,0.0,68,0.00,,,0.00,WUHU21623XXSP,2013-12-25 04:36:00,
2013-12-24 20:41:00,30.9,21.9,30.31,East,90,0.0,0.0,69,0.00,,,0.00,WUHU21623XXSP,2013-12-25 04:41:00,
2013-12-24 20:48:00,30.6,21.6,30.31,ENE,67,0.0,0.0,69,0.00,,,0.00,WUHU21623XXSP,2013-12-25 04:48:00,
2013-12-24 20:52:00,30.4,21.4,30.31,ENE,67,0.0,0.0,69,0.00,,,0.00,WUHU21623XXSP,2013-12-25 04:52:00,
2013-12-24 20:53:00,30.4,21.4,30.31,ENE,67,0.0,0.0,69,0.00,,,0.00,WUHU21623XXSP,2013-12-25 04:53:00,
2013-12-24 21:06:00,30.0,21.0,30.32,ENE,67,0.0,0.0,69,0.00,,,0.00,WUHU21623XXSP,2013-12-25 05:06:00,
2013-12-24 21:12:00,29.8,21.2,30.32,East,90,0.0,0.0,70,0.00,,,0.00,WUHU21623XXSP,2013-12-25 05:12:00,
2013-12-24 21:18:00,29.5,20.9,30.32,South,180,0.0,0.0,70,0.00,,,0.00,WUHU21623XXSP,2013-12-25 05:18:00,
2013-12-24 21:23:00,29.5,20.9,30.32,NE,45,0.0,0.0,70,0.00,,,0.00,WUHU21623XXSP,2013-12-25 05:23:00,
2013-12-24 21:28:00,29.3,20.8,30.33,ESE,112,0.0,0.0,70,0.00,,,0.00,WUHU21623XXSP,2013-12-25 05:28:00,
2013-12-24 21:37:00,28.9,20.4,30.33,East,90,0.0,0.0,70,0.00,,,0.00,WUHU21623XXSP,2013-12-25 05:37:00,
2013-12-24 21:47:00,28.8,20.3,30.32,South,180,0.0,0.0,70,0.00,,,0.00,WUHU21623XXSP,2013-12-25 05:47:00,
2013-12-24 21:52:00,28.6,20.4,30.33,SSE,157,0.0,0.0,71,0.00,,,0.00,WUHU21623XXSP,2013-12-25 05:52:00,
2013-12-24 21:57:00,28.2,20.1,30.33,SSE,157,0.0,0.0,71,0.00,,,0.00,WUHU21623XXSP,2013-12-25 05:57:00,
2013-12-24 22:02:00,28.2,20.1,30.33,SSE,157,0.0,0.0,71,0.00,,,0.00,WUHU21623XXSP,2013-12-25 06:02:00,
2013-12-24 22:07:00,28.0,19.9,30.33,SSE,157,0.0,0.0,71,0.00,,,0.00,WUHU21623XXSP,2013-12-25 06:07:00,
2013-12-24 22:12:00,28.0,19.9,30.33,SSE,157,0.0,0.0,71,0.00,,,0.00,WUHU21623XXSP,2013-12-25 06:12:00,
2013-12-24 22:18:00,27.7,19.5,30.33,SE,135,0.0,0.0,71,0.00,,,0.00,WUHU21623XXSP,2013-12-25 06:18:00,
2013-12-24 22:24:00,27.5,19.3,30.33,SE,135,0.0,0.0,71,0.00,,,0.00,WUHU21623XXSP,2013-12-25 06:24:00,
2013-12-24 22:29:00,27.3,19.2,30.33,SE,135,0.0,0.0,71,0.00,,,0.00,WUHU21623XXSP,2013-12-25 06:29:00,
2013-12-24 22:34:00,27.3,19.2,30.34,SW,225,0.0,0.0,71,0.00,,,0.00,WUHU21623XXSP,2013-12-25 06:34:00,
2013-12-24 22:39:00,27.1,19.0,30.34,North,0,0.0,0.0,71,0.00,,,0.00,WUHU21623XXSP,2013-12-25 06:39:00,
2013-12-24 22:48:00,27.1,19.0,30.34,North,0,0.0,0.0,71,0.00,,,0.00,WUHU21623XXSP,2013-12-25 06:48:00,
2013-12-24 22:53:00,26.6,18.8,30.34,North,0,0.0,0.0,72,0.00,,,0.00,WUHU21623XXSP,2013-12-25 06:53:00,
2013-12-24 22:58:00,26.4,18.6,30.34,ESE,112,0.0,0.0,72,0.00,,,0.00,WUHU21623XXSP,2013-12-25 06:58:00,
2013-12-24 23:03:00,26.4,18.6,30.34,NE,45,0.0,0.0,72,0.00,,,0.00,WUHU21623XXSP,2013-12-25 07:03:00,
2013-12-24 23:08:00,26.2,18.4,30.34,ENE,67,0.0,0.0,72,0.00,,,0.00,WUHU21623XXSP,2013-12-25 07:08:00,
2013-12-24 23:13:00,26.1,18.2,30.34,WNW,292,0.0,0.0,72,0.00,,,0.00,WUHU21623XXSP,2013-12-25 07:13:00,
2013-12-24 23:20:00,25.7,17.9,30.33,NNW,337,0.0,0.0,72,0.00,,,0.00,WUHU21623XXSP,2013-12-25 07:20:00,
2013-12-24 23:21:00,25.7,17.9,30.33,NNW,337,0.0,0.0,72,0.00,,,0.00,WUHU21623XXSP,2013-12-25 07:21:00,
2013-12-24 23:26:00,25.7,17.9,30.34,NNW,337,0.0,0.0,72,0.00,,,0.00,WUHU21623XXSP,2013-12-25 07:26:00,
2013-12-24 23:31:00,25.5,17.7,30.33,SSW,202,0.0,0.0,72,0.00,,,0.00,WUHU21623XXSP,2013-12-25 07:31:00,
2013-12-24 23:36:00,25.5,17.7,30.34,SSW,202,0.0,0.0,72,0.00,,,0.00,WUHU21623XXSP,2013-12-25 07:36:00,
2013-12-24 23:41:00,25.3,17.5,30.34,NNE,22,0.0,0.0,72,0.00,,,0.00,WUHU21623XXSP,2013-12-25 07:41:00,
2013-12-24 23:46:00,25.2,17.7,30.33,SSE,157,0.0,0.0,73,0.00,,,0.00,WUHU21623XXSP,2013-12-25 07:46:00,
2013-12-24 23:52:00,25.0,17.5,30.33,SSE,157,0.0,0.0,73,0.00,,,0.00,WUHU21623XXSP,2013-12-25 07:52:00,
2013-12-24 23:57:00,25.0,17.5,30.33,SE,135,0.0,0.0,73,0.00,,,0.00,WUHU21623XXSP,2013-12-25 07:57:00,